sensor_id;sensor_type;location;lat;lon;timestamp;P1;durP1;ratioP1;P2;durP2;ratioP2
22894;SDS011;11614;52.494;6.976;2023-11-19T00:00:30;11.23;;;6.60;;
22894;SDS011;11614;52.494;6.976;2023-11-19T00:02:56;10.97;;;7.37;;
22894;SDS011;11614;52.494;6.976;2023-11-19T00:05:22;10.33;;;6.50;;
22894;SDS011;11614;52.494;6.976;2023-11-19T00:07:48;13.40;;;9.20;;
22894;SDS011;11614;52.494;6.976;2023-11-19T00:10:15;5.77;;;2.97;;
22894;SDS011;11614;52.494;6.976;2023-11-19T00:12:44;13.67;;;8.73;;
22894;SDS011;11614;52.494;6.976;2023-11-19T00:15:15;13.73;;;7.93;;
22894;SDS011;11614;52.494;6.976;2023-11-19T00:17:44;11.23;;;7.43;;
22894;SDS011;11614;52.494;6.976;2023-11-19T00:20:14;15.23;;;9.97;;
22894;SDS011;11614;52.494;6.976;2023-11-19T00:22:43;8.57;;;4.53;;
22894;SDS011;11614;52.494;6.976;2023-11-19T00:25:11;14.07;;;7.03;;
22894;SDS011;11614;52.494;6.976;2023-11-19T00:27:37;11.60;;;7.87;;
22894;SDS011;11614;52.494;6.976;2023-11-19T00:30:06;12.17;;;6.20;;
22894;SDS011;11614;52.494;6.976;2023-11-19T00:32:33;11.80;;;7.83;;
22894;SDS011;11614;52.494;6.976;2023-11-19T00:34:59;14.40;;;8.40;;
22894;SDS011;11614;52.494;6.976;2023-11-19T00:37:25;6.90;;;3.90;;
22894;SDS011;11614;52.494;6.976;2023-11-19T00:39:51;11.80;;;6.00;;
22894;SDS011;11614;52.494;6.976;2023-11-19T00:42:17;9.20;;;5.00;;
22894;SDS011;11614;52.494;6.976;2023-11-19T00:44:43;10.97;;;5.63;;
22894;SDS011;11614;52.494;6.976;2023-11-19T00:47:10;12.27;;;6.30;;
22894;SDS011;11614;52.494;6.976;2023-11-19T00:49:36;15.63;;;9.80;;
22894;SDS011;11614;52.494;6.976;2023-11-19T00:52:02;12.03;;;7.53;;
22894;SDS011;11614;52.494;6.976;2023-11-19T00:54:28;10.47;;;5.93;;
22894;SDS011;11614;52.494;6.976;2023-11-19T00:56:55;18.67;;;11.17;;
22894;SDS011;11614;52.494;6.976;2023-11-19T00:59:21;16.57;;;10.37;;
22894;SDS011;11614;52.494;6.976;2023-11-19T01:01:47;15.27;;;9.70;;
22894;SDS011;11614;52.494;6.976;2023-11-19T01:04:13;22.13;;;11.10;;
22894;SDS011;11614;52.494;6.976;2023-11-19T01:06:39;17.43;;;10.23;;
22894;SDS011;11614;52.494;6.976;2023-11-19T01:09:07;24.17;;;12.73;;
22894;SDS011;11614;52.494;6.976;2023-11-19T01:11:33;20.10;;;12.00;;
22894;SDS011;11614;52.494;6.976;2023-11-19T01:14:00;22.83;;;14.63;;
22894;SDS011;11614;52.494;6.976;2023-11-19T01:16:26;14.30;;;8.40;;
22894;SDS011;11614;52.494;6.976;2023-11-19T01:18:52;19.20;;;12.03;;
22894;SDS011;11614;52.494;6.976;2023-11-19T01:21:18;16.73;;;9.57;;
22894;SDS011;11614;52.494;6.976;2023-11-19T01:23:44;17.03;;;10.67;;
22894;SDS011;11614;52.494;6.976;2023-11-19T01:26:11;19.87;;;11.97;;
22894;SDS011;11614;52.494;6.976;2023-11-19T01:28:41;22.37;;;12.67;;
22894;SDS011;11614;52.494;6.976;2023-11-19T01:31:10;19.33;;;10.87;;
22894;SDS011;11614;52.494;6.976;2023-11-19T01:33:36;19.90;;;13.13;;
22894;SDS011;11614;52.494;6.976;2023-11-19T01:36:02;23.20;;;11.67;;
22894;SDS011;11614;52.494;6.976;2023-11-19T01:38:29;17.07;;;11.87;;
22894;SDS011;11614;52.494;6.976;2023-11-19T01:40:56;17.93;;;9.77;;
22894;SDS011;11614;52.494;6.976;2023-11-19T01:43:38;21.33;;;11.20;;
22894;SDS011;11614;52.494;6.976;2023-11-19T01:46:07;19.97;;;13.20;;
22894;SDS011;11614;52.494;6.976;2023-11-19T01:48:39;21.90;;;12.03;;
22894;SDS011;11614;52.494;6.976;2023-11-19T01:51:08;11.67;;;6.50;;
22894;SDS011;11614;52.494;6.976;2023-11-19T01:53:35;21.13;;;10.83;;
22894;SDS011;11614;52.494;6.976;2023-11-19T01:56:02;22.40;;;12.83;;
22894;SDS011;11614;52.494;6.976;2023-11-19T01:58:28;21.83;;;12.77;;
22894;SDS011;11614;52.494;6.976;2023-11-19T02:00:55;19.77;;;11.87;;
22894;SDS011;11614;52.494;6.976;2023-11-19T02:03:22;22.70;;;12.10;;
22894;SDS011;11614;52.494;6.976;2023-11-19T02:05:50;9.37;;;5.60;;
22894;SDS011;11614;52.494;6.976;2023-11-19T02:08:18;23.27;;;13.60;;
22894;SDS011;11614;52.494;6.976;2023-11-19T02:10:45;20.90;;;11.30;;
22894;SDS011;11614;52.494;6.976;2023-11-19T02:13:11;22.40;;;12.30;;
22894;SDS011;11614;52.494;6.976;2023-11-19T02:15:39;24.53;;;11.00;;
22894;SDS011;11614;52.494;6.976;2023-11-19T02:18:16;19.60;;;10.83;;
22894;SDS011;11614;52.494;6.976;2023-11-19T02:20:43;19.43;;;10.77;;
22894;SDS011;11614;52.494;6.976;2023-11-19T02:23:09;11.63;;;6.50;;
22894;SDS011;11614;52.494;6.976;2023-11-19T02:25:35;13.53;;;7.90;;
22894;SDS011;11614;52.494;6.976;2023-11-19T02:28:02;23.53;;;10.67;;
22894;SDS011;11614;52.494;6.976;2023-11-19T02:30:29;14.40;;;6.73;;
22894;SDS011;11614;52.494;6.976;2023-11-19T02:32:57;17.87;;;8.97;;
22894;SDS011;11614;52.494;6.976;2023-11-19T02:35:26;14.93;;;6.50;;
22894;SDS011;11614;52.494;6.976;2023-11-19T02:37:52;14.27;;;6.47;;
22894;SDS011;11614;52.494;6.976;2023-11-19T02:40:19;22.03;;;8.27;;
22894;SDS011;11614;52.494;6.976;2023-11-19T02:42:49;14.93;;;9.43;;
22894;SDS011;11614;52.494;6.976;2023-11-19T02:45:15;13.30;;;5.73;;
22894;SDS011;11614;52.494;6.976;2023-11-19T02:47:41;16.17;;;8.47;;
22894;SDS011;11614;52.494;6.976;2023-11-19T02:50:08;14.70;;;8.23;;
22894;SDS011;11614;52.494;6.976;2023-11-19T02:52:43;17.53;;;7.83;;
22894;SDS011;11614;52.494;6.976;2023-11-19T02:55:11;15.30;;;7.90;;
22894;SDS011;11614;52.494;6.976;2023-11-19T02:57:40;13.23;;;5.80;;
22894;SDS011;11614;52.494;6.976;2023-11-19T03:00:15;18.30;;;7.17;;
22894;SDS011;11614;52.494;6.976;2023-11-19T03:02:42;17.43;;;6.13;;
22894;SDS011;11614;52.494;6.976;2023-11-19T03:05:13;10.33;;;3.63;;
22894;SDS011;11614;52.494;6.976;2023-11-19T03:07:40;19.17;;;6.77;;
22894;SDS011;11614;52.494;6.976;2023-11-19T03:10:07;13.77;;;6.70;;
22894;SDS011;11614;52.494;6.976;2023-11-19T03:12:34;13.10;;;5.53;;
22894;SDS011;11614;52.494;6.976;2023-11-19T03:15:00;16.40;;;5.73;;
22894;SDS011;11614;52.494;6.976;2023-11-19T03:17:26;19.40;;;6.50;;
22894;SDS011;11614;52.494;6.976;2023-11-19T03:19:52;9.20;;;3.63;;
22894;SDS011;11614;52.494;6.976;2023-11-19T03:22:18;10.83;;;4.07;;
22894;SDS011;11614;52.494;6.976;2023-11-19T03:24:45;14.57;;;5.00;;
22894;SDS011;11614;52.494;6.976;2023-11-19T03:27:11;16.90;;;6.30;;
22894;SDS011;11614;52.494;6.976;2023-11-19T03:29:37;12.90;;;5.53;;
22894;SDS011;11614;52.494;6.976;2023-11-19T03:32:04;10.47;;;3.80;;
22894;SDS011;11614;52.494;6.976;2023-11-19T03:34:30;13.50;;;4.83;;
22894;SDS011;11614;52.494;6.976;2023-11-19T03:36:56;10.20;;;4.63;;
22894;SDS011;11614;52.494;6.976;2023-11-19T03:39:22;10.83;;;3.63;;
22894;SDS011;11614;52.494;6.976;2023-11-19T03:41:50;14.03;;;4.17;;
22894;SDS011;11614;52.494;6.976;2023-11-19T03:44:16;11.20;;;3.60;;
22894;SDS011;11614;52.494;6.976;2023-11-19T03:46:43;12.17;;;3.97;;
22894;SDS011;11614;52.494;6.976;2023-11-19T03:49:08;10.13;;;3.97;;
22894;SDS011;11614;52.494;6.976;2023-11-19T03:51:34;11.33;;;3.67;;
22894;SDS011;11614;52.494;6.976;2023-11-19T03:54:00;14.10;;;4.33;;
22894;SDS011;11614;52.494;6.976;2023-11-19T03:56:26;13.60;;;4.40;;
22894;SDS011;11614;52.494;6.976;2023-11-19T03:58:52;17.17;;;4.63;;
22894;SDS011;11614;52.494;6.976;2023-11-19T04:01:19;11.90;;;3.40;;
22894;SDS011;11614;52.494;6.976;2023-11-19T04:03:45;13.13;;;4.43;;
22894;SDS011;11614;52.494;6.976;2023-11-19T04:06:11;16.20;;;4.97;;
22894;SDS011;11614;52.494;6.976;2023-11-19T04:08:36;15.17;;;3.63;;
22894;SDS011;11614;52.494;6.976;2023-11-19T04:11:03;18.20;;;4.03;;
22894;SDS011;11614;52.494;6.976;2023-11-19T04:13:29;15.90;;;5.07;;
22894;SDS011;11614;52.494;6.976;2023-11-19T04:15:55;11.40;;;2.50;;
22894;SDS011;11614;52.494;6.976;2023-11-19T04:18:21;14.83;;;2.27;;
22894;SDS011;11614;52.494;6.976;2023-11-19T04:20:47;16.13;;;3.77;;
22894;SDS011;11614;52.494;6.976;2023-11-19T04:23:13;18.40;;;4.67;;
22894;SDS011;11614;52.494;6.976;2023-11-19T04:25:39;14.77;;;3.50;;
22894;SDS011;11614;52.494;6.976;2023-11-19T04:28:05;24.97;;;5.07;;
22894;SDS011;11614;52.494;6.976;2023-11-19T04:30:31;14.03;;;4.30;;
22894;SDS011;11614;52.494;6.976;2023-11-19T04:32:57;12.47;;;1.77;;
22894;SDS011;11614;52.494;6.976;2023-11-19T04:35:23;12.57;;;4.17;;
22894;SDS011;11614;52.494;6.976;2023-11-19T04:37:51;15.70;;;4.10;;
22894;SDS011;11614;52.494;6.976;2023-11-19T04:40:17;15.50;;;4.87;;
22894;SDS011;11614;52.494;6.976;2023-11-19T04:42:43;10.53;;;2.53;;
22894;SDS011;11614;52.494;6.976;2023-11-19T04:45:10;12.90;;;2.90;;
22894;SDS011;11614;52.494;6.976;2023-11-19T04:47:36;11.63;;;3.77;;
22894;SDS011;11614;52.494;6.976;2023-11-19T04:50:02;16.43;;;4.90;;
22894;SDS011;11614;52.494;6.976;2023-11-19T04:52:28;8.97;;;2.93;;
22894;SDS011;11614;52.494;6.976;2023-11-19T04:54:54;11.33;;;3.17;;
22894;SDS011;11614;52.494;6.976;2023-11-19T04:57:20;16.67;;;3.80;;
22894;SDS011;11614;52.494;6.976;2023-11-19T04:59:46;9.17;;;1.63;;
22894;SDS011;11614;52.494;6.976;2023-11-19T05:02:12;15.47;;;4.63;;
22894;SDS011;11614;52.494;6.976;2023-11-19T05:04:43;10.93;;;3.73;;
22894;SDS011;11614;52.494;6.976;2023-11-19T05:07:11;15.47;;;4.37;;
22894;SDS011;11614;52.494;6.976;2023-11-19T05:09:37;26.03;;;5.47;;
22894;SDS011;11614;52.494;6.976;2023-11-19T05:12:03;10.13;;;3.03;;
22894;SDS011;11614;52.494;6.976;2023-11-19T05:14:29;11.07;;;3.17;;
22894;SDS011;11614;52.494;6.976;2023-11-19T05:16:55;11.73;;;4.83;;
22894;SDS011;11614;52.494;6.976;2023-11-19T05:19:21;15.40;;;2.97;;
22894;SDS011;11614;52.494;6.976;2023-11-19T05:21:47;14.97;;;3.87;;
22894;SDS011;11614;52.494;6.976;2023-11-19T05:24:17;18.33;;;4.40;;
22894;SDS011;11614;52.494;6.976;2023-11-19T05:26:43;18.67;;;5.40;;
22894;SDS011;11614;52.494;6.976;2023-11-19T05:29:09;15.27;;;4.80;;
22894;SDS011;11614;52.494;6.976;2023-11-19T05:31:34;20.20;;;4.87;;
22894;SDS011;11614;52.494;6.976;2023-11-19T05:34:00;16.77;;;5.30;;
22894;SDS011;11614;52.494;6.976;2023-11-19T05:36:26;22.33;;;4.53;;
22894;SDS011;11614;52.494;6.976;2023-11-19T05:38:53;19.40;;;6.30;;
22894;SDS011;11614;52.494;6.976;2023-11-19T05:41:19;17.30;;;4.90;;
22894;SDS011;11614;52.494;6.976;2023-11-19T05:43:45;22.80;;;4.00;;
22894;SDS011;11614;52.494;6.976;2023-11-19T05:46:11;15.03;;;4.57;;
22894;SDS011;11614;52.494;6.976;2023-11-19T05:48:38;23.40;;;5.43;;
22894;SDS011;11614;52.494;6.976;2023-11-19T05:51:04;19.37;;;4.73;;
22894;SDS011;11614;52.494;6.976;2023-11-19T05:53:30;16.77;;;4.87;;
22894;SDS011;11614;52.494;6.976;2023-11-19T05:55:57;17.87;;;5.50;;
22894;SDS011;11614;52.494;6.976;2023-11-19T05:58:24;17.57;;;3.60;;
22894;SDS011;11614;52.494;6.976;2023-11-19T06:00:56;11.67;;;2.37;;
22894;SDS011;11614;52.494;6.976;2023-11-19T06:03:22;18.90;;;5.37;;
22894;SDS011;11614;52.494;6.976;2023-11-19T06:05:48;10.23;;;2.67;;
22894;SDS011;11614;52.494;6.976;2023-11-19T06:08:15;18.57;;;3.87;;
22894;SDS011;11614;52.494;6.976;2023-11-19T06:10:41;16.10;;;3.90;;
22894;SDS011;11614;52.494;6.976;2023-11-19T06:13:07;21.10;;;5.47;;
22894;SDS011;11614;52.494;6.976;2023-11-19T06:15:35;22.53;;;3.27;;
22894;SDS011;11614;52.494;6.976;2023-11-19T06:18:01;14.60;;;2.97;;
22894;SDS011;11614;52.494;6.976;2023-11-19T06:20:32;20.10;;;4.43;;
22894;SDS011;11614;52.494;6.976;2023-11-19T06:22:58;14.23;;;3.93;;
22894;SDS011;11614;52.494;6.976;2023-11-19T06:25:24;21.10;;;4.17;;
22894;SDS011;11614;52.494;6.976;2023-11-19T06:27:50;20.40;;;4.73;;
22894;SDS011;11614;52.494;6.976;2023-11-19T06:30:16;17.10;;;4.33;;
22894;SDS011;11614;52.494;6.976;2023-11-19T06:32:42;12.60;;;3.47;;
22894;SDS011;11614;52.494;6.976;2023-11-19T06:35:08;16.97;;;4.70;;
22894;SDS011;11614;52.494;6.976;2023-11-19T06:37:35;20.97;;;4.23;;
22894;SDS011;11614;52.494;6.976;2023-11-19T06:40:01;14.80;;;3.00;;
22894;SDS011;11614;52.494;6.976;2023-11-19T06:42:28;21.63;;;4.53;;
22894;SDS011;11614;52.494;6.976;2023-11-19T06:44:54;8.83;;;2.83;;
22894;SDS011;11614;52.494;6.976;2023-11-19T06:47:22;23.73;;;4.20;;
22894;SDS011;11614;52.494;6.976;2023-11-19T06:49:48;20.80;;;3.53;;
22894;SDS011;11614;52.494;6.976;2023-11-19T06:52:14;25.93;;;7.30;;
22894;SDS011;11614;52.494;6.976;2023-11-19T06:54:39;18.63;;;3.60;;
22894;SDS011;11614;52.494;6.976;2023-11-19T06:57:05;17.60;;;4.80;;
22894;SDS011;11614;52.494;6.976;2023-11-19T06:59:32;16.97;;;5.37;;
22894;SDS011;11614;52.494;6.976;2023-11-19T07:01:58;18.17;;;3.20;;
22894;SDS011;11614;52.494;6.976;2023-11-19T07:04:27;20.50;;;3.83;;
22894;SDS011;11614;52.494;6.976;2023-11-19T07:06:52;19.17;;;3.10;;
22894;SDS011;11614;52.494;6.976;2023-11-19T07:09:18;22.13;;;5.73;;
22894;SDS011;11614;52.494;6.976;2023-11-19T07:11:44;16.70;;;3.67;;
22894;SDS011;11614;52.494;6.976;2023-11-19T07:14:12;19.80;;;4.47;;
22894;SDS011;11614;52.494;6.976;2023-11-19T07:16:38;17.13;;;4.67;;
22894;SDS011;11614;52.494;6.976;2023-11-19T07:19:04;21.03;;;4.93;;
22894;SDS011;11614;52.494;6.976;2023-11-19T07:21:30;22.53;;;4.33;;
22894;SDS011;11614;52.494;6.976;2023-11-19T07:23:57;17.80;;;2.87;;
22894;SDS011;11614;52.494;6.976;2023-11-19T07:26:23;14.60;;;2.73;;
22894;SDS011;11614;52.494;6.976;2023-11-19T07:28:50;20.73;;;5.20;;
22894;SDS011;11614;52.494;6.976;2023-11-19T07:31:16;16.60;;;2.90;;
22894;SDS011;11614;52.494;6.976;2023-11-19T07:33:45;14.50;;;2.97;;
22894;SDS011;11614;52.494;6.976;2023-11-19T07:36:12;21.40;;;6.57;;
22894;SDS011;11614;52.494;6.976;2023-11-19T07:38:38;15.90;;;4.50;;
22894;SDS011;11614;52.494;6.976;2023-11-19T07:41:05;14.00;;;4.10;;
22894;SDS011;11614;52.494;6.976;2023-11-19T07:43:31;15.10;;;1.93;;
22894;SDS011;11614;52.494;6.976;2023-11-19T07:45:58;19.13;;;4.57;;
22894;SDS011;11614;52.494;6.976;2023-11-19T07:48:24;15.67;;;4.10;;
22894;SDS011;11614;52.494;6.976;2023-11-19T07:50:51;22.33;;;5.73;;
22894;SDS011;11614;52.494;6.976;2023-11-19T07:53:18;15.30;;;2.60;;
22894;SDS011;11614;52.494;6.976;2023-11-19T07:55:44;13.70;;;2.60;;
22894;SDS011;11614;52.494;6.976;2023-11-19T07:58:10;17.20;;;4.23;;
22894;SDS011;11614;52.494;6.976;2023-11-19T08:00:36;18.50;;;5.57;;
22894;SDS011;11614;52.494;6.976;2023-11-19T08:03:03;24.10;;;5.20;;
22894;SDS011;11614;52.494;6.976;2023-11-19T08:05:29;27.67;;;5.37;;
22894;SDS011;11614;52.494;6.976;2023-11-19T08:07:55;22.23;;;5.80;;
22894;SDS011;11614;52.494;6.976;2023-11-19T08:10:21;22.33;;;5.90;;
22894;SDS011;11614;52.494;6.976;2023-11-19T08:12:47;18.03;;;4.60;;
22894;SDS011;11614;52.494;6.976;2023-11-19T08:15:13;17.37;;;3.17;;
22894;SDS011;11614;52.494;6.976;2023-11-19T08:17:40;24.70;;;3.43;;
22894;SDS011;11614;52.494;6.976;2023-11-19T08:20:07;21.47;;;3.93;;
22894;SDS011;11614;52.494;6.976;2023-11-19T08:22:35;17.07;;;2.47;;
22894;SDS011;11614;52.494;6.976;2023-11-19T08:25:01;23.70;;;5.00;;
22894;SDS011;11614;52.494;6.976;2023-11-19T08:27:28;22.60;;;4.40;;
22894;SDS011;11614;52.494;6.976;2023-11-19T08:29:54;17.50;;;5.10;;
22894;SDS011;11614;52.494;6.976;2023-11-19T08:32:26;24.17;;;5.07;;
22894;SDS011;11614;52.494;6.976;2023-11-19T08:34:52;17.03;;;5.43;;
22894;SDS011;11614;52.494;6.976;2023-11-19T08:37:18;22.10;;;4.27;;
22894;SDS011;11614;52.494;6.976;2023-11-19T08:39:49;17.47;;;4.73;;
22894;SDS011;11614;52.494;6.976;2023-11-19T08:42:15;10.57;;;2.10;;
22894;SDS011;11614;52.494;6.976;2023-11-19T08:44:42;24.60;;;5.43;;
22894;SDS011;11614;52.494;6.976;2023-11-19T08:47:08;20.73;;;4.77;;
22894;SDS011;11614;52.494;6.976;2023-11-19T08:49:34;21.47;;;5.50;;
22894;SDS011;11614;52.494;6.976;2023-11-19T08:52:01;32.27;;;6.10;;
22894;SDS011;11614;52.494;6.976;2023-11-19T08:54:27;16.87;;;4.43;;
22894;SDS011;11614;52.494;6.976;2023-11-19T08:56:53;20.73;;;4.37;;
22894;SDS011;11614;52.494;6.976;2023-11-19T08:59:19;16.23;;;5.17;;
22894;SDS011;11614;52.494;6.976;2023-11-19T09:01:44;17.93;;;5.37;;
22894;SDS011;11614;52.494;6.976;2023-11-19T09:04:10;19.50;;;4.60;;
22894;SDS011;11614;52.494;6.976;2023-11-19T09:06:36;13.67;;;3.40;;
22894;SDS011;11614;52.494;6.976;2023-11-19T09:09:03;23.20;;;4.30;;
22894;SDS011;11614;52.494;6.976;2023-11-19T09:11:30;15.43;;;2.93;;
22894;SDS011;11614;52.494;6.976;2023-11-19T09:13:56;18.43;;;5.57;;
22894;SDS011;11614;52.494;6.976;2023-11-19T09:16:22;15.97;;;3.83;;
22894;SDS011;11614;52.494;6.976;2023-11-19T09:18:49;21.27;;;4.00;;
22894;SDS011;11614;52.494;6.976;2023-11-19T09:21:15;12.87;;;2.83;;
22894;SDS011;11614;52.494;6.976;2023-11-19T09:23:41;18.57;;;3.40;;
22894;SDS011;11614;52.494;6.976;2023-11-19T09:26:09;16.23;;;4.90;;
22894;SDS011;11614;52.494;6.976;2023-11-19T09:28:36;17.07;;;4.03;;
22894;SDS011;11614;52.494;6.976;2023-11-19T09:31:02;19.13;;;4.47;;
22894;SDS011;11614;52.494;6.976;2023-11-19T09:33:31;11.27;;;3.20;;
22894;SDS011;11614;52.494;6.976;2023-11-19T09:35:58;10.33;;;2.57;;
22894;SDS011;11614;52.494;6.976;2023-11-19T09:38:24;15.80;;;4.17;;
22894;SDS011;11614;52.494;6.976;2023-11-19T09:40:50;15.73;;;2.90;;
22894;SDS011;11614;52.494;6.976;2023-11-19T09:43:16;19.17;;;3.50;;
22894;SDS011;11614;52.494;6.976;2023-11-19T09:45:49;17.63;;;3.80;;
22894;SDS011;11614;52.494;6.976;2023-11-19T09:48:18;13.83;;;3.93;;
22894;SDS011;11614;52.494;6.976;2023-11-19T09:50:45;20.57;;;5.97;;
22894;SDS011;11614;52.494;6.976;2023-11-19T09:53:12;22.73;;;4.80;;
22894;SDS011;11614;52.494;6.976;2023-11-19T09:55:38;13.73;;;3.40;;
22894;SDS011;11614;52.494;6.976;2023-11-19T09:58:04;21.13;;;5.27;;
22894;SDS011;11614;52.494;6.976;2023-11-19T10:00:31;13.70;;;2.97;;
22894;SDS011;11614;52.494;6.976;2023-11-19T10:02:57;20.50;;;5.73;;
22894;SDS011;11614;52.494;6.976;2023-11-19T10:05:25;17.90;;;4.40;;
22894;SDS011;11614;52.494;6.976;2023-11-19T10:07:51;18.47;;;5.10;;
22894;SDS011;11614;52.494;6.976;2023-11-19T10:10:20;20.30;;;3.57;;
22894;SDS011;11614;52.494;6.976;2023-11-19T10:12:46;17.87;;;4.30;;
22894;SDS011;11614;52.494;6.976;2023-11-19T10:15:17;16.57;;;4.60;;
22894;SDS011;11614;52.494;6.976;2023-11-19T10:17:45;11.97;;;2.93;;
22894;SDS011;11614;52.494;6.976;2023-11-19T10:20:11;22.10;;;5.20;;
22894;SDS011;11614;52.494;6.976;2023-11-19T10:22:37;20.50;;;3.13;;
22894;SDS011;11614;52.494;6.976;2023-11-19T10:25:04;16.80;;;4.13;;
22894;SDS011;11614;52.494;6.976;2023-11-19T10:27:30;19.90;;;3.37;;
22894;SDS011;11614;52.494;6.976;2023-11-19T10:29:59;21.27;;;4.97;;
22894;SDS011;11614;52.494;6.976;2023-11-19T10:32:25;16.93;;;3.40;;
22894;SDS011;11614;52.494;6.976;2023-11-19T10:34:51;15.83;;;4.00;;
22894;SDS011;11614;52.494;6.976;2023-11-19T10:37:27;19.20;;;4.77;;
22894;SDS011;11614;52.494;6.976;2023-11-19T10:39:55;19.53;;;5.33;;
22894;SDS011;11614;52.494;6.976;2023-11-19T10:42:21;14.60;;;2.57;;
22894;SDS011;11614;52.494;6.976;2023-11-19T10:44:47;10.80;;;2.67;;
22894;SDS011;11614;52.494;6.976;2023-11-19T10:47:17;17.30;;;3.53;;
22894;SDS011;11614;52.494;6.976;2023-11-19T10:49:44;17.27;;;4.83;;
22894;SDS011;11614;52.494;6.976;2023-11-19T10:52:17;22.93;;;5.60;;
22894;SDS011;11614;52.494;6.976;2023-11-19T10:54:49;18.63;;;3.73;;
22894;SDS011;11614;52.494;6.976;2023-11-19T10:57:19;20.30;;;5.33;;
22894;SDS011;11614;52.494;6.976;2023-11-19T10:59:45;17.90;;;3.97;;
22894;SDS011;11614;52.494;6.976;2023-11-19T11:02:11;20.10;;;4.30;;
22894;SDS011;11614;52.494;6.976;2023-11-19T11:04:39;12.70;;;3.63;;
22894;SDS011;11614;52.494;6.976;2023-11-19T11:07:07;16.10;;;3.37;;
22894;SDS011;11614;52.494;6.976;2023-11-19T11:09:33;14.63;;;4.73;;
22894;SDS011;11614;52.494;6.976;2023-11-19T11:11:59;15.47;;;4.47;;
22894;SDS011;11614;52.494;6.976;2023-11-19T11:14:25;20.60;;;5.67;;
22894;SDS011;11614;52.494;6.976;2023-11-19T11:16:53;16.93;;;4.77;;
22894;SDS011;11614;52.494;6.976;2023-11-19T11:19:19;8.00;;;2.47;;
22894;SDS011;11614;52.494;6.976;2023-11-19T11:21:47;14.93;;;4.63;;
22894;SDS011;11614;52.494;6.976;2023-11-19T11:29:38;19.50;;;4.00;;
22894;SDS011;11614;52.494;6.976;2023-11-19T11:34:41;10.67;;;3.17;;
22894;SDS011;11614;52.494;6.976;2023-11-19T11:39:35;19.80;;;6.23;;
22894;SDS011;11614;52.494;6.976;2023-11-19T11:45:05;10.17;;;2.87;;
22894;SDS011;11614;52.494;6.976;2023-11-19T11:50:10;16.63;;;5.70;;
22894;SDS011;11614;52.494;6.976;2023-11-19T11:55:34;16.13;;;3.60;;
22894;SDS011;11614;52.494;6.976;2023-11-19T11:58:01;21.53;;;4.57;;
22894;SDS011;11614;52.494;6.976;2023-11-19T12:00:30;15.37;;;4.43;;
22894;SDS011;11614;52.494;6.976;2023-11-19T12:02:57;14.80;;;3.00;;
22894;SDS011;11614;52.494;6.976;2023-11-19T12:05:24;15.77;;;3.67;;
22894;SDS011;11614;52.494;6.976;2023-11-19T12:07:57;16.00;;;3.23;;
22894;SDS011;11614;52.494;6.976;2023-11-19T12:10:26;18.83;;;4.97;;
22894;SDS011;11614;52.494;6.976;2023-11-19T12:12:59;14.43;;;3.70;;
22894;SDS011;11614;52.494;6.976;2023-11-19T12:15:25;13.77;;;2.60;;
22894;SDS011;11614;52.494;6.976;2023-11-19T12:17:52;19.50;;;3.50;;
22894;SDS011;11614;52.494;6.976;2023-11-19T12:20:20;16.57;;;4.33;;
22894;SDS011;11614;52.494;6.976;2023-11-19T12:22:47;19.50;;;3.77;;
22894;SDS011;11614;52.494;6.976;2023-11-19T12:25:14;19.80;;;4.83;;
22894;SDS011;11614;52.494;6.976;2023-11-19T12:27:42;18.27;;;4.10;;
22894;SDS011;11614;52.494;6.976;2023-11-19T12:30:09;28.03;;;5.50;;
22894;SDS011;11614;52.494;6.976;2023-11-19T12:35:04;13.93;;;3.23;;
22894;SDS011;11614;52.494;6.976;2023-11-19T12:37:30;13.10;;;3.40;;
22894;SDS011;11614;52.494;6.976;2023-11-19T12:39:57;7.13;;;1.90;;
22894;SDS011;11614;52.494;6.976;2023-11-19T12:42:38;9.67;;;2.33;;
22894;SDS011;11614;52.494;6.976;2023-11-19T12:45:05;20.53;;;3.30;;
22894;SDS011;11614;52.494;6.976;2023-11-19T12:47:31;13.87;;;3.47;;
22894;SDS011;11614;52.494;6.976;2023-11-19T12:49:57;16.27;;;4.20;;
22894;SDS011;11614;52.494;6.976;2023-11-19T12:52:23;15.47;;;3.80;;
22894;SDS011;11614;52.494;6.976;2023-11-19T12:54:49;9.97;;;3.20;;
22894;SDS011;11614;52.494;6.976;2023-11-19T12:57:16;23.87;;;5.20;;
22894;SDS011;11614;52.494;6.976;2023-11-19T12:59:53;18.20;;;4.50;;
22894;SDS011;11614;52.494;6.976;2023-11-19T13:02:20;16.50;;;4.83;;
22894;SDS011;11614;52.494;6.976;2023-11-19T13:04:46;14.40;;;3.43;;
22894;SDS011;11614;52.494;6.976;2023-11-19T13:07:12;12.97;;;3.37;;
22894;SDS011;11614;52.494;6.976;2023-11-19T13:09:38;17.13;;;3.43;;
22894;SDS011;11614;52.494;6.976;2023-11-19T13:12:14;17.27;;;4.50;;
22894;SDS011;11614;52.494;6.976;2023-11-19T13:14:41;16.40;;;4.40;;
22894;SDS011;11614;52.494;6.976;2023-11-19T13:17:12;19.83;;;3.93;;
22894;SDS011;11614;52.494;6.976;2023-11-19T13:19:38;12.60;;;2.87;;
22894;SDS011;11614;52.494;6.976;2023-11-19T13:22:04;15.97;;;4.60;;
22894;SDS011;11614;52.494;6.976;2023-11-19T13:24:30;14.97;;;4.63;;
22894;SDS011;11614;52.494;6.976;2023-11-19T13:26:56;13.60;;;4.23;;
22894;SDS011;11614;52.494;6.976;2023-11-19T13:29:22;15.37;;;3.13;;
22894;SDS011;11614;52.494;6.976;2023-11-19T13:31:48;8.90;;;2.23;;
22894;SDS011;11614;52.494;6.976;2023-11-19T13:34:14;9.83;;;3.57;;
22894;SDS011;11614;52.494;6.976;2023-11-19T13:36:40;17.80;;;5.27;;
22894;SDS011;11614;52.494;6.976;2023-11-19T13:39:07;9.67;;;2.73;;
22894;SDS011;11614;52.494;6.976;2023-11-19T13:41:33;11.83;;;2.90;;
22894;SDS011;11614;52.494;6.976;2023-11-19T13:43:59;18.27;;;4.40;;
22894;SDS011;11614;52.494;6.976;2023-11-19T13:46:25;6.43;;;1.90;;
22894;SDS011;11614;52.494;6.976;2023-11-19T13:48:51;15.13;;;4.23;;
22894;SDS011;11614;52.494;6.976;2023-11-19T13:51:17;22.57;;;5.53;;
22894;SDS011;11614;52.494;6.976;2023-11-19T13:53:43;12.67;;;2.73;;
22894;SDS011;11614;52.494;6.976;2023-11-19T13:56:09;19.30;;;3.70;;
22894;SDS011;11614;52.494;6.976;2023-11-19T13:58:35;12.03;;;3.20;;
22894;SDS011;11614;52.494;6.976;2023-11-19T14:01:02;12.10;;;3.57;;
22894;SDS011;11614;52.494;6.976;2023-11-19T14:03:28;11.70;;;2.67;;
22894;SDS011;11614;52.494;6.976;2023-11-19T14:05:53;14.07;;;2.90;;
22894;SDS011;11614;52.494;6.976;2023-11-19T14:08:20;5.10;;;1.63;;
22894;SDS011;11614;52.494;6.976;2023-11-19T14:10:46;15.23;;;3.43;;
22894;SDS011;11614;52.494;6.976;2023-11-19T14:13:12;15.77;;;4.07;;
22894;SDS011;11614;52.494;6.976;2023-11-19T14:15:40;15.00;;;4.20;;
22894;SDS011;11614;52.494;6.976;2023-11-19T14:18:07;17.93;;;4.50;;
22894;SDS011;11614;52.494;6.976;2023-11-19T14:20:33;14.97;;;3.17;;
22894;SDS011;11614;52.494;6.976;2023-11-19T14:23:00;15.33;;;4.33;;
22894;SDS011;11614;52.494;6.976;2023-11-19T14:25:27;15.07;;;3.67;;
22894;SDS011;11614;52.494;6.976;2023-11-19T14:27:53;12.33;;;2.80;;
22894;SDS011;11614;52.494;6.976;2023-11-19T14:30:19;17.43;;;3.57;;
22894;SDS011;11614;52.494;6.976;2023-11-19T14:32:45;11.27;;;2.23;;
22894;SDS011;11614;52.494;6.976;2023-11-19T14:35:13;9.83;;;2.33;;
22894;SDS011;11614;52.494;6.976;2023-11-19T14:37:39;14.07;;;4.23;;
22894;SDS011;11614;52.494;6.976;2023-11-19T14:40:05;16.00;;;4.23;;
22894;SDS011;11614;52.494;6.976;2023-11-19T14:42:34;16.40;;;3.83;;
22894;SDS011;11614;52.494;6.976;2023-11-19T14:45:00;17.30;;;4.00;;
22894;SDS011;11614;52.494;6.976;2023-11-19T14:47:26;9.53;;;1.97;;
22894;SDS011;11614;52.494;6.976;2023-11-19T14:49:54;17.37;;;4.63;;
22894;SDS011;11614;52.494;6.976;2023-11-19T14:52:20;17.70;;;4.67;;